Accueil
METAR-TAF:

METAR-TAF

Aéroports :

Quaqtaq, Québec, Canada

latitude: 61-03N, longitude: 069-38W, altitude: 30 m

Observation

Le bulletin a été fait il y a 2 heures et 46 minutes, à 04:00 UTC
Vent 16 kt de nord-ouest
Température -21°C
Humidité 77%
Pression 995 hPa
Visibilité: 9.7 km
Nuages fragmentés à une hauteur de 4600 ft
cristaux de glace, Chasse-neige basse

METAR: CYHA 170400Z 32016KT 6SM IC DRSN BKN046 M21/M24 A2939 RMK SC7 SLP957

Heure: 01:46 (06:46 UTC)

Prévision

Le bulletin a été fait il y a 12 heures et 37 minutes, à 18:09 UTC
Prévision valable du 16 à 18 UTC au 16 à 22 UTC
Vent 8 kt de nord/nord-ouest
Visibilité: 1.6 km
à une hauteur de 2000 ft
neige faible
Temporairement
du 16 à 18 UTC au 16 à 22 UTC
Visibilité: 10 km
Ciel couvert à une hauteur de 3000 ft
cristaux de glace

TAF: CYHA 161809Z 1618/1622 34008KT 1SM -SN VV020 TEMPO 1618/1622 P6SM IC OVC030 RMK NXT FCST WILL BE ISSUED AT 171445Z

Observations et prévisions météorologiques de plus de 4000 aéroports (messages METAR et TAF).

Les stations disponibles sont représentées par des disques jaunes et rouges sur la carte.

Passer la souris dessus pour voir le nom de la station.

Cliquer dessus pour voir les observations et prévisions météorologiques.

Pour changer de carte: cliquez sur les boutons verts avec une croix noire pour zoomer, sur le bouton vert avec un tiret pour effectuer un zoom arrière, ou sur les flèches vertes pour les cartes adjacentes.


METAR-TAF: